»·PEaware :: N7208 KTOA-KRNM

N7208 :: KTOA-KRNM

FLIGHT INFORMATION

Flight Status: Arrived
Operator: Privately registered:
United States
More flights under this callsign
Pilot: Brendan L. (37777)
Aircraft: Unknown
(P28S)
More flights by this aircraft type
Origin: KTOA Zamperini
United States
Destination: KRNM Ramona
United States
More flights between these airports :: More routes between these airports
Route:
File this flight plan on PilotEdge
Remarks:
Altitude:
(Current/Filed)
5,500ft
Speed:
(Current/Filed)
150kts
Departed: 02-Sep-22 05:48 PM
Arrived: 02-Sep-22 07:23 PM
Distance/Time
Traveled:
85nm/1:35
Distance/Time
To Go:
Arrived

Flight Plot

Page will automatically refresh every two minutes.

Flight plan parsing failed; only flown route is shown


Map Options




Map Legend


Flown Route
Filed Route
Departure Airport
Arrival Airport
Navaid (VOR, NDB)
Fix

Horizontal Profiles

Position Reports

Time Latitude Longitude Heading Altitude Ground
Speed
02-Sep-22 17:23 33.803659 -118.344525 346 105ft 0kts
02-Sep-22 17:24 33.803659 -118.344525 346 105ft 0kts
02-Sep-22 17:25 33.803659 -118.344525 346 105ft 0kts
02-Sep-22 17:26 33.803659 -118.344525 346 105ft 0kts
02-Sep-22 17:27 33.803659 -118.344525 346 105ft 0kts
02-Sep-22 17:28 33.803659 -118.344525 346 105ft 0kts
02-Sep-22 17:29 33.803659 -118.344525 346 105ft 0kts
02-Sep-22 17:30 33.803659 -118.344525 346 105ft 0kts
02-Sep-22 17:31 33.803659 -118.344525 346 105ft 0kts
02-Sep-22 17:32 33.803659 -118.344525 346 105ft 0kts
02-Sep-22 17:33 33.803659 -118.344525 346 105ft 0kts
02-Sep-22 17:34 33.803659 -118.344525 346 105ft 0kts
02-Sep-22 17:35 33.803659 -118.344525 346 105ft 0kts
02-Sep-22 17:36 33.803659 -118.344525 346 105ft 0kts
02-Sep-22 17:37 33.804752 -118.344544 39 99ft 9kts
02-Sep-22 17:38 33.804583 -118.344386 128 99ft 9kts
02-Sep-22 17:39 33.801670 -118.340004 130 98ft 18kts
02-Sep-22 17:40 33.798784 -118.335637 129 106ft 16kts
02-Sep-22 17:41 33.799116 -118.333283 35 100ft 0kts
02-Sep-22 17:42 33.799116 -118.333283 35 100ft 0kts
02-Sep-22 17:43 33.799116 -118.333283 35 100ft 0kts
02-Sep-22 17:44 33.799116 -118.333283 35 100ft 0kts
02-Sep-22 17:45 33.799116 -118.333283 35 100ft 0kts
02-Sep-22 17:46 33.799116 -118.333283 35 100ft 0kts
02-Sep-22 17:47 33.802011 -118.336501 306 118ft 72kts
02-Sep-22 17:48 33.817930 -118.343579 118 1446ft 110kts
02-Sep-22 17:49 33.809826 -118.310083 106 3006ft 128kts
02-Sep-22 17:50 33.789311 -118.281067 97 4173ft 127kts
02-Sep-22 17:51 33.775558 -118.239169 124 4888ft 137kts
02-Sep-22 17:52 33.755209 -118.206064 140 5451ft 109kts
02-Sep-22 17:53 33.731077 -118.178291 138 5579ft 119kts
02-Sep-22 17:54 33.702048 -118.154923 158 5705ft 134kts
02-Sep-22 17:55 33.673596 -118.125016 118 5413ft 134kts
02-Sep-22 17:56 33.655769 -118.086569 126 5473ft 127kts
02-Sep-22 17:57 33.635231 -118.052311 123 5592ft 124kts
02-Sep-22 17:58 33.612400 -118.019824 141 5696ft 127kts
02-Sep-22 17:59 33.590103 -117.986722 126 5832ft 128kts
02-Sep-22 18:00 33.566874 -117.955598 136 6024ft 127kts
02-Sep-22 18:01 33.544400 -117.917636 125 5440ft 144kts
02-Sep-22 18:02 33.523405 -117.880972 126 5463ft 124kts
02-Sep-22 18:03 33.502407 -117.848833 125 5547ft 123kts
02-Sep-22 18:04 33.484533 -117.814180 109 5616ft 120kts
02-Sep-22 18:05 33.464913 -117.781155 115 5622ft 125kts
02-Sep-22 18:06 33.462134 -117.776356 136 5431ft 133kts
02-Sep-22 18:07 33.459419 -117.771730 126 5211ft 143kts
02-Sep-22 18:08 33.453699 -117.765186 133 5192ft 131kts
02-Sep-22 18:09 33.447333 -117.758444 132 5002ft 138kts
02-Sep-22 18:10 33.435918 -117.742993 134 4845ft 131kts
02-Sep-22 18:11 33.803658 -118.344525 346 100ft 0kts
02-Sep-22 18:12 33.803657 -118.344523 344 106ft 0kts
02-Sep-22 18:23 33.798948 -118.336992 67 107ft 0kts
02-Sep-22 18:24 33.798948 -118.336992 67 107ft 0kts
02-Sep-22 18:25 33.798948 -118.336992 67 107ft 0kts
02-Sep-22 18:26 33.798948 -118.336992 67 107ft 0kts
02-Sep-22 18:27 33.798948 -118.336992 67 107ft 0kts
02-Sep-22 18:28 33.798948 -118.336992 67 107ft 0kts
02-Sep-22 18:29 33.798837 -118.336990 282 108ft 5kts
02-Sep-22 18:30 33.799242 -118.336334 131 105ft 15kts
02-Sep-22 18:31 33.799009 -118.333372 38 100ft 1kts
02-Sep-22 18:32 33.799123 -118.333266 38 100ft 0kts
02-Sep-22 18:33 33.801235 -118.335375 309 98ft 70kts
02-Sep-22 18:34 33.818280 -118.347223 97 1520ft 102kts
02-Sep-22 18:35 33.803469 -118.318496 136 3139ft 103kts
02-Sep-22 18:36 33.779791 -118.297158 140 4699ft 100kts
02-Sep-22 18:37 33.752425 -118.274829 154 5968ft 107kts
02-Sep-22 18:38 33.726283 -118.259333 128 6905ft 114kts
02-Sep-22 18:39 33.700351 -118.236592 186 7523ft 146kts
02-Sep-22 18:40 33.680991 -118.202397 127 7468ft 127kts
02-Sep-22 18:41 33.653518 -118.187532 111 7225ft 116kts
02-Sep-22 18:42 33.636635 -118.154384 98 7147ft 123kts
02-Sep-22 18:43 33.631522 -118.116357 100 7252ft 136kts
02-Sep-22 18:44 33.619379 -118.071016 115 5955ft 147kts
02-Sep-22 18:45 33.599982 -118.031084 119 5419ft 115kts
02-Sep-22 18:46 33.575652 -118.007224 169 5482ft 127kts
02-Sep-22 18:47 33.560519 -117.974626 95 5485ft 130kts
02-Sep-22 18:48 33.543702 -117.936319 126 5485ft 131kts
02-Sep-22 18:49 33.522885 -117.900335 123 5488ft 131kts
02-Sep-22 18:50 33.502022 -117.864501 124 5492ft 131kts
02-Sep-22 18:51 33.480746 -117.829064 137 5499ft 131kts
02-Sep-22 18:52 33.451504 -117.802592 142 5514ft 132kts
02-Sep-22 18:53 33.421742 -117.776376 140 5531ft 132kts
02-Sep-22 18:54 33.403049 -117.739501 121 5551ft 131kts
02-Sep-22 18:55 33.382788 -117.703102 125 5552ft 131kts
02-Sep-22 18:56 33.360470 -117.668374 126 5548ft 132kts
02-Sep-22 18:57 33.337839 -117.633624 126 5534ft 132kts
02-Sep-22 18:58 33.315195 -117.598963 126 5521ft 132kts
02-Sep-22 18:59 33.292401 -117.564266 126 5487ft 132kts
02-Sep-22 19:00 33.269463 -117.529520 126 5488ft 133kts
02-Sep-22 19:01 33.258426 -117.512779 126 5489ft 133kts
02-Sep-22 19:02 33.258426 -117.512779 126 5489ft 133kts
02-Sep-22 19:03 33.258426 -117.512779 126 5489ft 133kts
02-Sep-22 19:04 33.236444 -117.479576 126 5487ft 133kts
02-Sep-22 19:05 33.213472 -117.445006 126 5495ft 133kts
02-Sep-22 19:06 33.211669 -117.404852 75 5486ft 129kts
02-Sep-22 19:07 33.218161 -117.362974 109 5478ft 130kts
02-Sep-22 19:08 33.198146 -117.326150 116 5487ft 132kts
02-Sep-22 19:09 33.184519 -117.286030 108 4965ft 131kts
02-Sep-22 19:10 33.164040 -117.249558 119 4206ft 132kts
02-Sep-22 19:11 33.163166 -117.208772 76 3527ft 124kts
02-Sep-22 19:12 33.151459 -117.169595 114 2852ft 131kts
02-Sep-22 19:13 33.141411 -117.129264 128 2220ft 127kts
02-Sep-22 19:14 33.126132 -117.096864 120 2216ft 105kts
02-Sep-22 19:15 33.111881 -117.066191 117 2227ft 104kts
02-Sep-22 19:16 33.095994 -117.035341 118 2521ft 112kts
02-Sep-22 19:17 33.079292 -117.003008 121 2569ft 114kts
02-Sep-22 19:18 33.063014 -116.969908 120 2370ft 115kts
02-Sep-22 19:19 33.050226 -116.935568 101 2380ft 111kts
02-Sep-22 19:20 33.047395 -116.899401 92 2063ft 103kts
02-Sep-22 19:21 33.036739 -116.897215 274 1637ft 83kts
02-Sep-22 19:22 33.039567 -116.917760 281 1385ft 29kts
02-Sep-22 19:23 33.040506 -116.918935 36 1390ft 10kts
02-Sep-22 19:24 33.040650 -116.917095 129 1392ft 9kts
02-Sep-22 19:25 33.040414 -116.916682 31 1392ft 0kts
02-Sep-22 19:26 33.040414 -116.916682 31 1392ft 0kts

Navigation Log

Ident Type
Flight plan parsing failed, navigation log unavailable